Time;durP1;ratioP1;P1;durP2;ratioP2;P2;SDS_P1;SDS_P2;PMS_P1;PMS_P2;Temp;Humidity;BMP_temperature;BMP_pressure;BME280_temperature;BME280_humidity;BME280_pressure;Samples;Min_cycle;Max_cycle;Signal;HPM_P1;HPM_P2
2023/03/28 00:01:49;;;;;;;11.57;5.60;;;;;;;-1.42;61.29;98225.13;5092152;28;20039;-72
2023/03/28 00:04:14;;;;;;;12.65;6.68;;;;;;;-1.43;61.39;98228.84;5090394;28;20046;-72
2023/03/28 00:06:40;;;;;;;14.07;6.25;;;;;;;-1.41;61.22;98234.00;5087439;28;20551;-72
2023/03/28 00:09:07;;;;;;;12.93;6.15;;;;;;;-1.38;61.19;98228.19;5090654;28;20026;-72
2023/03/28 00:11:33;;;;;;;10.73;5.85;;;;;;;-1.36;61.36;98229.63;5087573;28;20245;-72
2023/03/28 00:13:59;;;;;;;13.70;6.05;;;;;;;-1.32;61.42;98229.16;5090521;28;20472;-73
2023/03/28 00:16:36;;;;;;;14.00;5.70;;;;;;;-1.32;61.59;98235.34;5082091;28;20028;-72
2023/03/28 00:19:05;;;;;;;15.10;6.18;;;;;;;-1.27;61.46;98238.19;5085995;28;20032;-72
2023/03/28 00:21:34;;;;;;;13.00;6.05;;;;;;;-1.24;61.92;98243.13;5090129;28;20081;-72
2023/03/28 00:24:02;;;;;;;14.52;6.45;;;;;;;-1.22;61.30;98241.03;5081948;28;20032;-72
2023/03/28 00:26:31;;;;;;;13.20;6.28;;;;;;;-1.23;61.40;98234.00;5087705;28;20032;-72
2023/03/28 00:28:57;;;;;;;14.45;7.05;;;;;;;-1.21;61.88;98237.31;5093035;28;20461;-72
2023/03/28 00:31:26;;;;;;;13.63;6.43;;;;;;;-1.23;61.64;98241.28;5084211;28;20056;-72
2023/03/28 00:33:52;;;;;;;11.48;6.53;;;;;;;-1.23;61.90;98247.47;5087045;28;20344;-71
2023/03/28 00:36:21;;;;;;;13.85;6.05;;;;;;;-1.17;61.90;98245.75;5076193;28;20012;-72
2023/03/28 00:38:51;;;;;;;12.50;6.50;;;;;;;-1.16;62.01;98241.19;5074853;28;20025;-72
2023/03/28 00:41:17;;;;;;;13.20;6.18;;;;;;;-1.10;62.08;98235.72;5078201;28;20028;-71
2023/03/28 00:43:48;;;;;;;14.27;6.88;;;;;;;-1.06;62.38;98236.09;5051131;28;20056;-72
2023/03/28 00:46:25;;;;;;;13.38;6.40;;;;;;;-1.01;62.26;98230.84;5071477;28;20032;-72
2023/03/28 00:48:55;;;;;;;14.27;6.57;;;;;;;-0.93;62.48;98232.41;5072400;28;20032;-73
2023/03/28 00:51:25;;;;;;;12.02;5.82;;;;;;;-0.88;62.33;98239.81;5055519;28;20570;-72
2023/03/28 00:53:56;;;;;;;15.23;6.65;;;;;;;-0.82;62.55;98236.22;5052446;28;20530;-72
2023/03/28 00:56:24;;;;;;;17.02;6.25;;;;;;;-0.78;62.98;98232.00;5061073;28;20476;-72
2023/03/28 00:58:50;;;;;;;13.00;6.50;;;;;;;-0.79;62.31;98231.19;5072368;28;20047;-72
2023/03/28 01:01:18;;;;;;;12.25;6.15;;;;;;;-0.79;62.96;98231.19;5057561;28;20021;-72
2023/03/28 01:03:51;;;;;;;10.35;5.93;;;;;;;-0.83;62.55;98230.00;5052015;28;20033;-72
2023/03/28 01:06:20;;;;;;;15.38;6.25;;;;;;;-0.85;62.52;98234.81;5051391;28;20376;-72
2023/03/28 01:08:47;;;;;;;17.88;6.47;;;;;;;-0.88;63.27;98232.56;5064605;28;20040;-72
2023/03/28 01:11:14;;;;;;;13.30;6.90;;;;;;;-0.90;62.35;98231.97;5066943;28;20029;-72
2023/03/28 01:13:49;;;;;;;12.93;7.35;;;;;;;-0.94;62.86;98231.59;5054903;28;20033;-72
2023/03/28 01:16:17;;;;;;;12.55;6.13;;;;;;;-0.93;62.71;98235.91;5058440;28;20029;-72
2023/03/28 01:18:50;;;;;;;11.80;6.18;;;;;;;-0.93;62.88;98240.50;5061049;28;20029;-72
2023/03/28 01:21:47;;;;;;;11.88;6.15;;;;;;;-0.91;63.07;98244.59;5049480;28;20029;-71
2023/03/28 01:24:37;;;;;;;14.95;6.55;;;;;;;-0.87;63.15;98236.91;5050894;28;20098;-72
2023/03/28 01:27:21;;;;;;;;;;;;;;;-0.87;63.09;98238.75;5071131;28;20103;-72
2023/03/28 01:30:00;;;;;;;10.13;5.45;;;;;;;-0.83;62.73;98229.19;5070123;28;19912;-72
2023/03/28 01:32:44;;;;;;;13.57;6.20;;;;;;;-0.82;63.03;98234.34;5054846;28;20040;-72
2023/03/28 01:35:35;;;;;;;11.38;6.00;;;;;;;-0.76;63.37;98229.91;5063040;28;20041;-72
2023/03/28 01:38:11;;;;;;;11.43;5.72;;;;;;;-0.76;63.79;98227.22;5053910;28;20107;-71
2023/03/28 01:40:40;;;;;;;14.40;6.70;;;;;;;-0.77;63.49;98218.31;5070728;28;20036;-72
2023/03/28 01:43:14;;;;;;;10.43;5.57;;;;;;;-0.77;63.47;98225.56;5081679;28;20051;-72
2023/03/28 01:46:07;;;;;;;13.40;6.55;;;;;;;-0.78;63.55;98218.53;5068135;28;20079;-70
2023/03/28 01:48:44;;;;;;;11.52;6.00;;;;;;;-0.75;63.83;98218.09;5089084;28;20036;-70
2023/03/28 01:51:33;;;;;;;12.13;6.50;;;;;;;-0.75;63.94;98224.28;5089693;28;20028;-69
2023/03/28 01:54:11;;;;;;;10.90;5.70;;;;;;;-0.70;63.97;98220.09;5085172;28;20060;-70
2023/03/28 01:57:09;;;;;;;11.63;6.43;;;;;;;-0.69;63.81;98224.44;5089966;28;20046;-70
2023/03/28 01:59:44;;;;;;;12.60;5.85;;;;;;;-0.70;64.46;98222.78;5087802;28;20028;-70
2023/03/28 02:02:21;;;;;;;14.15;6.00;;;;;;;-0.72;65.07;98223.03;5083795;28;20440;-70
2023/03/28 02:04:48;;;;;;;11.50;5.53;;;;;;;-0.79;64.32;98212.31;5084608;28;20065;-69
2023/03/28 02:07:19;;;;;;;14.45;6.13;;;;;;;-0.81;65.01;98225.19;5083690;28;20062;-70
2023/03/28 02:09:46;;;;;;;9.45;5.40;;;;;;;-0.85;64.30;98220.50;5087432;28;20066;-69
2023/03/28 02:12:18;;;;;;;10.05;6.00;;;;;;;-0.90;64.60;98213.94;5088065;28;20044;-69
2023/03/28 02:14:47;;;;;;;9.48;5.28;;;;;;;-0.92;65.19;98215.22;5088853;28;20028;-70
2023/03/28 02:17:15;;;;;;;10.45;5.22;;;;;;;-0.94;64.78;98211.94;5089216;28;20119;-70
2023/03/28 02:19:52;;;;;;;9.52;5.10;;;;;;;-0.98;65.12;98208.84;5087841;28;20032;-70
2023/03/28 02:22:29;;;;;;;8.73;4.95;;;;;;;-1.01;64.74;98200.41;5089795;28;20511;-70
2023/03/28 02:24:55;;;;;;;8.25;4.53;;;;;;;-1.00;64.90;98204.75;5065186;28;20054;-70
2023/03/28 02:27:21;;;;;;;8.32;4.30;;;;;;;-1.01;64.86;98209.31;5089997;28;20024;-70
2023/03/28 02:29:48;;;;;;;7.70;4.47;;;;;;;-1.01;64.85;98206.63;5086929;28;20032;-70
2023/03/28 02:32:15;;;;;;;9.90;5.00;;;;;;;-1.03;65.08;98208.75;5088654;28;20437;-70
2023/03/28 02:34:42;;;;;;;10.27;4.38;;;;;;;-1.03;65.26;98203.34;5087527;28;20032;-69
2023/03/28 02:37:20;;;;;;;7.60;4.32;;;;;;;-1.04;65.25;98209.78;5085881;28;20024;-70
2023/03/28 02:39:51;;;;;;;6.43;4.00;;;;;;;-1.06;65.59;98206.50;5086324;28;20028;-70
2023/03/28 02:42:25;;;;;;;8.02;4.57;;;;;;;-1.07;65.42;98200.28;5088020;28;20603;-69
2023/03/28 02:45:08;;;;;;;7.90;4.43;;;;;;;-1.02;65.42;98204.16;5087683;28;20110;-70
2023/03/28 02:48:06;;;;;;;8.93;4.80;;;;;;;-1.00;65.89;98202.88;5080107;28;20519;-69
2023/03/28 02:50:48;;;;;;;7.00;4.15;;;;;;;-1.05;65.37;98200.88;5027225;28;20041;-70
2023/03/28 02:53:26;;;;;;;7.47;4.22;;;;;;;-1.05;65.57;98195.50;5088273;28;20031;-69
2023/03/28 02:56:19;;;;;;;6.15;3.70;;;;;;;-1.07;65.50;98194.09;5086575;28;20081;-69
2023/03/28 02:58:50;;;;;;;6.40;3.50;;;;;;;-1.07;65.45;98191.41;5086092;28;20056;-69
2023/03/28 03:01:16;;;;;;;6.13;3.60;;;;;;;-1.08;65.50;98204.03;5089005;28;20024;-70
2023/03/28 03:03:42;;;;;;;5.18;3.88;;;;;;;-1.07;65.16;98197.59;5089251;28;20047;-70
2023/03/28 03:06:08;;;;;;;6.43;3.90;;;;;;;-1.06;65.54;98195.72;5089080;28;20450;-69
2023/03/28 03:08:34;;;;;;;5.88;3.20;;;;;;;-1.05;65.64;98200.06;5090328;28;20107;-69
2023/03/28 03:11:00;;;;;;;5.82;3.72;;;;;;;-1.03;65.33;98192.59;5086889;28;20115;-70
2023/03/28 03:13:25;;;;;;;6.20;3.55;;;;;;;-0.99;65.44;98199.13;5087709;28;20040;-69
2023/03/28 03:15:54;;;;;;;6.82;3.65;;;;;;;-0.94;65.68;98195.78;5085571;28;20024;-69
2023/03/28 03:18:21;;;;;;;10.85;4.28;;;;;;;-0.91;65.48;98196.13;5089306;28;20047;-69
2023/03/28 03:20:46;;;;;;;7.75;4.15;;;;;;;-0.88;65.16;98197.56;5088681;28;20059;-69
2023/03/28 03:23:12;;;;;;;6.78;3.95;;;;;;;-0.84;65.98;98201.44;5089185;28;20064;-69
2023/03/28 03:25:38;;;;;;;7.30;4.13;;;;;;;-0.78;65.65;98199.69;5084962;28;20032;-69
2023/03/28 03:28:03;;;;;;;7.18;4.07;;;;;;;-0.78;65.91;98192.44;5084891;28;20028;-69
2023/03/28 03:30:29;;;;;;;6.05;4.38;;;;;;;-0.78;66.43;98187.03;5086616;28;20032;-70
2023/03/28 03:32:55;;;;;;;6.75;5.28;;;;;;;-0.83;65.86;98186.94;5087844;28;20085;-69
2023/03/28 03:35:21;;;;;;;8.40;6.07;;;;;;;-0.84;65.50;98189.84;5068554;28;20036;-70
2023/03/28 03:37:47;;;;;;;7.82;5.97;;;;;;;-0.83;66.03;98184.25;5090068;28;20093;-70
2023/03/28 03:40:12;;;;;;;6.45;4.90;;;;;;;-0.78;66.07;98191.63;5088779;28;20078;-69
2023/03/28 03:42:38;;;;;;;8.60;4.55;;;;;;;-0.75;66.11;98181.19;5077915;28;20056;-69
2023/03/28 03:45:04;;;;;;;6.68;4.25;;;;;;;-0.70;65.67;98185.06;5068565;28;20042;-69
2023/03/28 03:47:30;;;;;;;7.70;4.10;;;;;;;-0.65;65.76;98186.06;5068988;28;20110;-69
2023/03/28 03:49:55;;;;;;;8.35;4.22;;;;;;;-0.62;65.70;98180.22;5065619;28;20085;-69
2023/03/28 03:52:21;;;;;;;8.15;4.15;;;;;;;-0.54;65.58;98181.75;5067208;28;20632;-70
2023/03/28 03:54:46;;;;;;;12.05;4.40;;;;;;;-0.48;65.78;98188.06;5072379;28;20118;-70
2023/03/28 03:57:12;;;;;;;9.45;4.55;;;;;;;-0.40;65.80;98184.22;5054588;28;20027;-69
2023/03/28 03:59:37;;;;;;;7.45;4.40;;;;;;;-0.38;65.69;98190.19;5057023;28;20486;-70
2023/03/28 04:02:02;;;;;;;9.20;4.55;;;;;;;-0.35;65.93;98187.88;5060849;28;20040;-70
2023/03/28 04:04:28;;;;;;;5.60;3.85;;;;;;;-0.33;65.54;98196.53;5073472;28;20107;-69
2023/03/28 04:06:56;;;;;;;19.40;10.40;;;;;;;-0.33;65.80;98196.53;5064249;28;20465;-69
2023/03/28 04:09:25;;;;;;;33.20;13.20;;;;;;;-0.31;65.81;98207.91;5072488;28;20040;-69
2023/03/28 04:11:51;;;;;;;16.98;8.38;;;;;;;-0.31;65.83;98205.22;5069260;28;20041;-70
2023/03/28 04:14:16;;;;;;;12.35;5.00;;;;;;;-0.31;65.75;98213.31;5056500;28;20020;-69
2023/03/28 04:16:43;;;;;;;6.93;3.92;;;;;;;-0.32;65.72;98208.97;5054078;28;20025;-70
2023/03/28 04:19:09;;;;;;;6.05;3.30;;;;;;;-0.28;66.15;98208.50;5072555;28;20024;-72
2023/03/28 04:21:36;;;;;;;7.10;3.70;;;;;;;-0.27;65.93;98213.66;5065334;28;20111;-71
2023/03/28 04:24:01;;;;;;;10.48;5.32;;;;;;;-0.31;66.24;98205.22;5052452;28;20052;-71
2023/03/28 04:26:28;;;;;;;7.65;3.97;;;;;;;-0.28;66.16;98200.41;5064040;28;20492;-70
2023/03/28 04:28:55;;;;;;;5.57;3.10;;;;;;;-0.23;66.53;98208.63;5053072;28;20101;-72
2023/03/28 04:31:27;;;;;;;5.90;3.10;;;;;;;-0.26;66.35;98206.41;5066838;28;20055;-72
2023/03/28 04:33:53;;;;;;;3.90;2.83;;;;;;;-0.31;66.78;98215.16;5071854;28;20078;-72
2023/03/28 04:36:21;;;;;;;3.80;2.50;;;;;;;-0.39;67.11;98213.63;5051678;28;20033;-72
2023/03/28 04:38:48;;;;;;;5.70;3.05;;;;;;;-0.49;67.32;98214.19;5052895;28;20025;-72
2023/03/28 04:41:15;;;;;;;3.70;2.55;;;;;;;-0.49;67.45;98206.13;5054168;28;20385;-72
2023/03/28 04:43:41;;;;;;;3.20;2.85;;;;;;;-0.49;68.38;98214.19;5087977;28;20048;-72
2023/03/28 04:46:07;;;;;;;3.15;2.60;;;;;;;-0.50;68.62;98211.72;5091468;28;20032;-72
2023/03/28 04:48:32;;;;;;;4.82;3.60;;;;;;;-0.51;69.02;98204.69;5086484;28;20093;-72
2023/03/28 04:50:57;;;;;;;4.45;3.08;;;;;;;-0.51;69.40;98199.31;5086990;28;20034;-72
2023/03/28 04:53:23;;;;;;;4.97;3.67;;;;;;;-0.52;69.82;98211.97;5091961;28;20044;-73
2023/03/28 04:55:49;;;;;;;18.40;6.85;;;;;;;-0.51;69.21;98216.31;5090180;28;20403;-72
2023/03/28 04:58:19;;;;;;;12.38;4.70;;;;;;;-0.49;69.37;98216.06;5089886;28;20028;-73
2023/03/28 05:00:45;;;;;;;16.73;7.40;;;;;;;-0.47;69.96;98212.09;5089891;28;20537;-72
2023/03/28 05:03:19;;;;;;;11.18;5.88;;;;;;;-0.49;70.18;98210.66;5090688;28;20044;-72
2023/03/28 05:05:51;;;;;;;10.80;4.20;;;;;;;-0.50;71.16;98226.03;5087710;28;20039;-72
2023/03/28 05:08:18;;;;;;;6.40;3.80;;;;;;;-0.50;70.56;98217.09;5088287;28;20028;-72
2023/03/28 05:10:44;;;;;;;11.43;6.10;;;;;;;-0.50;70.53;98212.56;5091258;28;20396;-72
2023/03/28 05:13:10;;;;;;;7.22;4.10;;;;;;;-0.49;70.67;98202.59;5090923;28;20062;-72
2023/03/28 05:15:36;;;;;;;5.55;3.05;;;;;;;-0.48;71.22;98213.16;5088591;28;20136;-72
2023/03/28 05:18:01;;;;;;;8.48;4.50;;;;;;;-0.41;70.60;98214.94;5088781;28;20388;-72
2023/03/28 05:20:27;;;;;;;9.75;5.20;;;;;;;-0.33;70.27;98214.56;5090330;28;20107;-73
2023/03/28 05:22:52;;;;;;;6.75;4.18;;;;;;;-0.22;70.39;98212.97;5090949;28;20058;-72
2023/03/28 05:25:18;;;;;;;6.95;4.05;;;;;;;-0.19;70.34;98216.00;5089961;28;20024;-73
2023/03/28 05:27:44;;;;;;;7.05;4.45;;;;;;;-0.11;70.45;98219.44;5091543;28;20115;-72
2023/03/28 05:30:10;;;;;;;6.70;4.20;;;;;;;-0.05;70.30;98226.59;5073789;28;20519;-72
2023/03/28 05:32:38;;;;;;;6.05;3.88;;;;;;;-0.01;71.21;98231.28;5091400;28;20039;-72
2023/03/28 05:35:09;;;;;;;5.32;3.38;;;;;;;0.05;71.50;98229.50;5089694;28;20039;-74
2023/03/28 05:37:35;;;;;;;5.00;3.60;;;;;;;0.05;70.92;98234.91;5090484;28;20028;-72
2023/03/28 05:40:04;;;;;;;5.13;3.38;;;;;;;0.03;70.84;98233.50;5090370;28;20048;-72
2023/03/28 05:42:30;;;;;;;7.13;3.55;;;;;;;0.02;70.84;98239.94;5076840;28;20135;-71
2023/03/28 05:44:55;;;;;;;7.13;3.80;;;;;;;-0.02;70.55;98229.63;5062581;28;20191;-71
2023/03/28 05:47:20;;;;;;;5.25;3.20;;;;;;;-0.02;71.00;98235.03;5061988;28;20462;-71
2023/03/28 05:49:46;;;;;;;4.88;3.58;;;;;;;-0.03;70.86;98241.47;5062116;28;20139;-71
2023/03/28 05:52:11;;;;;;;7.43;3.97;;;;;;;0.01;70.96;98243.69;5052185;28;20572;-71
2023/03/28 05:54:36;;;;;;;8.45;3.85;;;;;;;0.07;71.24;98238.19;5057969;28;20506;-71
2023/03/28 05:57:02;;;;;;;4.95;3.50;;;;;;;0.19;71.31;98234.69;5062989;28;20060;-72
2023/03/28 05:59:28;;;;;;;5.43;3.38;;;;;;;0.29;70.94;98246.53;5069649;28;20043;-71
2023/03/28 06:01:54;;;;;;;6.53;4.15;;;;;;;0.33;71.44;98237.97;5056671;28;20452;-72
2023/03/28 06:04:21;;;;;;;5.63;3.60;;;;;;;0.31;71.27;98235.50;5054523;28;20033;-71
2023/03/28 06:06:48;;;;;;;7.40;3.65;;;;;;;0.35;70.77;98234.00;5057223;28;20033;-70
2023/03/28 06:09:14;;;;;;;4.43;3.40;;;;;;;0.46;71.38;98245.00;5054968;28;20032;-71
2023/03/28 06:11:40;;;;;;;9.68;4.43;;;;;;;0.50;70.61;98252.41;5049403;28;20063;-71
2023/03/28 06:14:06;;;;;;;7.20;3.90;;;;;;;0.44;71.24;98243.34;5060656;28;20078;-71
2023/03/28 06:16:31;;;;;;;10.30;5.13;;;;;;;0.49;71.09;98253.47;5052397;28;20084;-72
2023/03/28 06:18:57;;;;;;;11.40;5.40;;;;;;;0.57;70.75;98250.41;5060346;28;20099;-72
2023/03/28 06:21:24;;;;;;;12.63;5.88;;;;;;;0.63;71.00;98253.19;5068779;28;20037;-72
2023/03/28 06:23:50;;;;;;;11.10;5.43;;;;;;;0.66;71.01;98268.91;5047774;28;20166;-73
2023/03/28 06:26:16;;;;;;;12.68;5.22;;;;;;;0.64;71.45;98273.72;5054183;28;20044;-70
2023/03/28 06:28:41;;;;;;;16.52;6.72;;;;;;;0.66;71.53;98282.41;5055435;28;20024;-71
2023/03/28 06:31:09;;;;;;;23.02;7.95;;;;;;;0.56;71.32;98283.00;5048594;28;20025;-71
2023/03/28 06:33:39;;;;;;;14.77;5.68;;;;;;;0.38;71.79;98310.94;5048591;28;20147;-71
2023/03/28 06:36:05;;;;;;;3.60;2.55;;;;;;;0.15;72.40;98323.34;5055660;28;20029;-70
2023/03/28 06:38:32;;;;;;;1.75;1.10;;;;;;;-0.09;72.76;98322.47;5061122;28;20036;-70
2023/03/28 06:40:57;;;;;;;2.70;1.40;;;;;;;-0.32;72.86;98340.19;5052737;28;20029;-71
2023/03/28 06:43:22;;;;;;;2.90;1.33;;;;;;;-0.54;72.87;98343.38;5078948;28;20052;-71
2023/03/28 06:45:48;;;;;;;1.60;1.30;;;;;;;-0.73;73.78;98342.56;5052568;28;20056;-70
2023/03/28 06:48:13;;;;;;;4.97;2.50;;;;;;;-0.90;73.88;98353.13;5088694;28;20089;-71
2023/03/28 06:50:39;;;;;;;2.10;1.20;;;;;;;-1.05;74.12;98351.63;5089167;28;20032;-72
2023/03/28 06:56:20;;;;;;;11.60;3.95;;;;;;;-1.26;73.45;98352.88;5070389;28;20105;-71
2023/03/28 06:58:45;;;;;;;4.00;2.00;;;;;;;-1.23;74.10;98351.63;5089752;28;20465;-71
2023/03/28 07:01:12;;;;;;;5.57;2.83;;;;;;;-1.24;74.18;98355.34;5088606;28;20066;-72
2023/03/28 07:03:37;;;;;;;6.55;2.65;;;;;;;-1.22;74.10;98351.38;5089254;28;20047;-71
2023/03/28 07:06:05;;;;;;;3.33;2.00;;;;;;;-1.23;74.09;98357.00;5089646;28;20024;-69
2023/03/28 07:08:31;;;;;;;4.53;2.22;;;;;;;-1.26;74.38;98365.50;5087915;28;20028;-70
2023/03/28 07:10:56;;;;;;;7.47;3.25;;;;;;;-1.31;74.46;98379.59;5083991;28;20048;-71
2023/03/28 07:13:21;;;;;;;6.65;3.03;;;;;;;-1.35;74.61;98370.31;5087535;28;20464;-72
2023/03/28 07:15:47;;;;;;;4.78;3.13;;;;;;;-1.35;74.59;98384.63;5085592;28;20067;-71
2023/03/28 07:18:12;;;;;;;4.55;2.67;;;;;;;-1.30;74.69;98383.94;5087899;28;20082;-72
2023/03/28 07:20:39;;;;;;;5.82;2.63;;;;;;;-1.25;74.29;98391.38;5088197;28;20017;-72
2023/03/28 07:23:04;;;;;;;5.80;3.20;;;;;;;-1.11;74.65;98394.75;5089069;28;20039;-72
2023/03/28 07:25:31;;;;;;;7.45;3.88;;;;;;;-1.04;74.82;98395.53;5089318;28;20036;-71
2023/03/28 07:27:56;;;;;;;4.35;2.65;;;;;;;-0.97;74.88;98398.94;5093116;28;20032;-71
2023/03/28 07:30:21;;;;;;;7.75;3.42;;;;;;;-0.81;74.76;98404.81;5090864;28;20039;-74
2023/03/28 07:32:47;;;;;;;6.70;3.08;;;;;;;-0.64;74.68;98403.19;5073559;28;20122;-72
2023/03/28 07:35:12;;;;;;;5.82;2.90;;;;;;;-0.48;74.37;98398.22;5092830;28;20032;-73
2023/03/28 07:37:37;;;;;;;6.03;3.20;;;;;;;-0.39;73.79;98402.25;5090317;28;20032;-71
2023/03/28 07:40:04;;;;;;;5.22;2.90;;;;;;;-0.33;73.58;98403.22;5090440;28;20024;-72
2023/03/28 07:42:30;;;;;;;5.00;2.45;;;;;;;-0.19;73.17;98409.25;5087339;28;20073;-71
2023/03/28 07:44:55;;;;;;;3.88;2.72;;;;;;;-0.08;72.89;98416.59;5089913;28;20040;-73
2023/03/28 07:47:21;;;;;;;5.75;2.58;;;;;;;0.08;71.63;98420.50;5068505;28;20028;-72
2023/03/28 07:49:46;;;;;;;3.90;2.30;;;;;;;0.21;71.71;98427.59;5073130;28;20192;-74
2023/03/28 07:52:12;;;;;;;4.20;2.20;;;;;;;0.33;70.75;98424.94;5091257;28;20064;-72
2023/03/28 07:54:39;;;;;;;3.13;1.88;;;;;;;0.44;70.23;98428.72;5090799;28;20028;-72
2023/03/28 07:57:05;;;;;;;3.80;1.98;;;;;;;0.54;69.32;98445.19;5090750;28;20457;-72
2023/03/28 07:59:30;;;;;;;3.50;2.30;;;;;;;0.65;68.95;98442.72;5091100;28;20077;-73
2023/03/28 08:01:55;;;;;;;3.33;2.00;;;;;;;0.83;68.97;98452.59;5091044;28;20396;-73
2023/03/28 08:04:21;;;;;;;5.32;2.78;;;;;;;0.99;68.65;98443.03;5091171;28;20043;-73
2023/03/28 08:06:46;;;;;;;11.25;4.07;;;;;;;1.15;68.67;98450.41;5091583;28;20032;-72
2023/03/28 08:09:15;;;;;;;10.40;3.40;;;;;;;1.28;68.92;98457.44;5074150;28;20073;-73
2023/03/28 08:11:42;;;;;;;4.28;2.25;;;;;;;1.32;67.42;98474.03;5071963;28;20024;-73
2023/03/28 08:14:11;;;;;;;6.07;2.40;;;;;;;1.28;66.14;98470.97;5089496;28;20032;-74
2023/03/28 08:16:36;;;;;;;3.22;2.10;;;;;;;1.18;65.87;98473.44;5090628;28;20024;-74
2023/03/28 08:19:02;;;;;;;3.38;1.83;;;;;;;1.06;65.69;98483.41;5087106;28;20481;-72
2023/03/28 08:21:30;;;;;;;3.45;1.90;;;;;;;0.92;66.50;98485.50;5090176;28;20039;-73
2023/03/28 08:23:58;;;;;;;4.10;2.00;;;;;;;0.84;65.77;98494.75;5090899;28;20035;-72
2023/03/28 08:26:24;;;;;;;6.07;2.80;;;;;;;0.79;66.58;98483.84;5087788;28;20120;-72
2023/03/28 08:28:53;;;;;;;4.97;3.03;;;;;;;0.83;66.42;98485.00;5092218;28;20066;-73
2023/03/28 08:31:22;;;;;;;4.90;2.20;;;;;;;0.91;66.51;98490.06;5091202;28;20173;-72
2023/03/28 08:33:50;;;;;;;3.88;2.25;;;;;;;0.98;65.61;98487.28;5091568;28;20507;-70
2023/03/28 08:36:16;;;;;;;4.75;2.40;;;;;;;1.13;65.87;98484.13;5091157;28;20058;-70
2023/03/28 08:38:42;;;;;;;5.82;3.08;;;;;;;1.30;65.48;98487.75;5090684;28;20032;-74
2023/03/28 08:41:08;;;;;;;4.53;2.20;;;;;;;1.39;65.39;98493.66;5090224;28;20020;-74
2023/03/28 08:43:39;;;;;;;6.68;2.75;;;;;;;1.36;65.01;98490.59;5075964;28;20056;-73
2023/03/28 08:46:04;;;;;;;3.97;2.40;;;;;;;1.27;64.58;98509.84;5066324;28;20099;-74
2023/03/28 08:48:40;;;;;;;5.30;2.67;;;;;;;1.01;66.53;98521.94;5066477;28;20139;-74
2023/03/28 08:51:14;;;;;;;4.57;2.38;;;;;;;0.80;67.51;98528.69;5063042;28;20021;-75
2023/03/28 08:53:46;;;;;;;6.30;2.97;;;;;;;0.65;68.65;98534.50;5064677;28;20032;-75
2023/03/28 08:56:14;;;;;;;5.03;2.95;;;;;;;0.59;69.62;98539.78;5058426;28;20086;-74
2023/03/28 08:58:50;;;;;;;3.72;2.50;;;;;;;0.47;70.25;98533.50;5052351;28;20055;-74
2023/03/28 09:01:19;;;;;;;3.50;2.10;;;;;;;0.31;70.12;98543.06;5064786;28;20024;-74
2023/03/28 09:03:45;;;;;;;4.35;2.72;;;;;;;0.22;70.43;98549.81;5053211;28;20028;-75
2023/03/28 09:06:29;;;;;;;3.20;2.67;;;;;;;0.18;70.62;98554.00;5052540;28;20025;-71
2023/03/28 09:09:00;;;;;;;5.13;3.28;;;;;;;0.17;71.28;98572.06;5068796;28;20016;-75
2023/03/28 09:11:30;;;;;;;3.60;3.03;;;;;;;0.12;71.13;98553.03;5057286;28;20079;-76
2023/03/28 09:14:14;;;;;;;6.93;3.70;;;;;;;0.07;71.58;98563.69;5051250;28;20017;-75
2023/03/28 09:17:11;;;;;;;3.03;2.17;;;;;;;0.07;71.80;98567.19;5061534;28;20025;-75
2023/03/28 09:19:42;;;;;;;4.30;2.60;;;;;;;0.16;71.79;98569.59;5072759;28;20052;-75
2023/03/28 09:22:34;;;;;;;3.85;3.05;;;;;;;0.35;72.10;98560.44;5072293;28;20135;-75
2023/03/28 09:25:21;;;;;;;13.95;6.38;;;;;;;0.44;71.43;98579.84;5072695;28;20039;-75
2023/03/28 09:27:55;;;;;;;4.22;3.22;;;;;;;0.40;71.84;98560.59;5072649;28;20033;-75
2023/03/28 09:30:27;;;;;;;3.90;3.03;;;;;;;0.40;71.32;98590.28;5054455;28;20477;-75
2023/03/28 09:32:57;;;;;;;4.00;2.80;;;;;;;0.26;71.25;98589.59;5072384;28;20020;-75
2023/03/28 09:35:25;;;;;;;2.90;2.00;;;;;;;0.14;70.11;98583.31;5062950;28;20055;-75
2023/03/28 09:37:59;;;;;;;2.30;1.70;;;;;;;0.01;69.54;98580.75;5058551;28;20040;-75
2023/03/28 09:40:30;;;;;;;3.33;2.05;;;;;;;-0.02;69.82;98579.34;5057235;28;20024;-74
2023/03/28 09:43:26;;;;;;;4.88;2.67;;;;;;;0.00;70.02;98588.03;5062424;28;20040;-75
2023/03/28 09:45:57;;;;;;;4.97;2.90;;;;;;;0.01;70.27;98575.38;5068093;28;20033;-74
2023/03/28 09:48:31;;;;;;;6.15;3.42;;;;;;;0.05;70.34;98585.47;5051044;28;20021;-75
2023/03/28 09:50:57;;;;;;;4.32;2.67;;;;;;;0.11;70.72;98579.19;5051216;28;20032;-75
2023/03/28 09:53:26;;;;;;;4.07;2.53;;;;;;;0.24;70.68;98575.50;5050858;28;20064;-75
2023/03/28 09:55:55;;;;;;;4.35;2.70;;;;;;;0.45;70.06;98586.88;5051537;28;20033;-75
2023/03/28 09:58:20;;;;;;;2.63;2.05;;;;;;;0.78;69.90;98579.41;5050881;28;20087;-75
2023/03/28 10:00:53;;;;;;;3.15;2.40;;;;;;;1.14;69.15;98577.63;5049471;28;20424;-75
2023/03/28 10:03:33;;;;;;;4.00;2.70;;;;;;;1.39;67.92;98588.25;5050868;28;20033;-74
2023/03/28 10:06:17;;;;;;;7.32;3.20;;;;;;;1.39;67.54;98595.50;5050771;28;20038;-73
2023/03/28 10:08:42;;;;;;;3.25;2.33;;;;;;;1.35;66.35;98603.28;5071294;28;20027;-73
2023/03/28 10:11:16;;;;;;;5.10;2.90;;;;;;;1.27;66.62;98622.53;5069957;28;20024;-73
2023/03/28 10:13:46;;;;;;;4.40;2.60;;;;;;;1.10;67.38;98633.97;5067875;28;20107;-74
2023/03/28 10:16:27;;;;;;;6.68;3.88;;;;;;;0.64;68.86;98633.56;5050604;28;20378;-74
2023/03/28 10:18:53;;;;;;;7.90;4.07;;;;;;;0.36;69.20;98636.81;5067335;28;20455;-76
2023/03/28 10:21:25;;;;;;;4.78;3.10;;;;;;;0.16;71.00;98642.41;5070469;28;20044;-76
2023/03/28 10:23:59;;;;;;;4.25;2.90;;;;;;;-0.05;70.96;98623.75;5053003;28;20032;-76
2023/03/28 10:26:26;;;;;;;3.65;2.50;;;;;;;-0.10;71.33;98615.50;5052659;28;20036;-75
2023/03/28 10:28:53;;;;;;;4.05;2.40;;;;;;;-0.12;71.20;98622.16;5070239;28;20056;-76
2023/03/28 10:31:30;;;;;;;5.45;3.05;;;;;;;-0.10;71.33;98610.09;5047984;28;20033;-76
2023/03/28 10:33:58;;;;;;;4.18;2.40;;;;;;;-0.01;71.93;98611.47;5067106;28;20028;-76
2023/03/28 10:36:38;;;;;;;2.85;2.30;;;;;;;0.13;71.64;98614.03;5058418;28;20037;-76
2023/03/28 10:39:23;;;;;;;3.42;2.10;;;;;;;0.29;70.31;98608.00;5067734;28;20060;-76
2023/03/28 10:41:53;;;;;;;2.20;1.80;;;;;;;0.48;70.08;98610.72;5066320;28;20035;-75
2023/03/28 10:44:29;;;;;;;3.00;2.10;;;;;;;0.65;69.55;98605.53;5070898;28;20063;-77
2023/03/28 10:46:58;;;;;;;2.53;1.92;;;;;;;0.90;69.73;98609.94;5070572;28;20510;-75
2023/03/28 10:49:25;;;;;;;2.03;1.83;;;;;;;1.19;69.20;98604.78;5071003;28;20121;-75
2023/03/28 10:51:51;;;;;;;5.13;2.40;;;;;;;1.49;67.24;98607.38;5070568;28;20029;-76
2023/03/28 10:54:41;;;;;;;6.68;3.47;;;;;;;1.73;66.94;98596.59;5070500;28;20487;-76
2023/03/28 10:57:09;;;;;;;13.23;5.20;;;;;;;2.01;65.85;98595.06;5052726;28;20028;-77
2023/03/28 10:59:53;;;;;;;12.05;4.72;;;;;;;2.17;65.73;98609.75;5073510;28;20031;-76
2023/03/28 11:02:35;;;;;;;9.35;4.18;;;;;;;2.25;65.38;98619.38;5074604;28;20021;-76
2023/03/28 11:05:27;;;;;;;5.60;2.75;;;;;;;2.18;64.17;98618.69;5074672;28;20028;-76
2023/03/28 11:08:01;;;;;;;15.73;6.40;;;;;;;2.11;63.74;98605.28;5028193;28;20037;-76
2023/03/28 11:10:32;;;;;;;8.20;3.78;;;;;;;2.07;64.50;98606.81;5074863;28;20028;-76
2023/03/28 11:13:25;;;;;;;6.50;2.80;;;;;;;2.00;64.69;98625.88;5074390;28;20385;-76
2023/03/28 11:16:02;;;;;;;20.38;15.02;;;;;;;1.95;63.57;98644.69;5074484;28;20477;-75
2023/03/28 11:18:30;;;;;;;5.75;3.90;;;;;;;1.82;64.60;98643.03;5056550;28;20029;-76
2023/03/28 11:21:02;;;;;;;3.80;2.70;;;;;;;1.69;64.91;98651.38;5073084;28;20046;-75
2023/03/28 11:23:58;;;;;;;2.78;2.50;;;;;;;1.73;65.64;98666.91;5072955;28;20029;-76
2023/03/28 11:26:46;;;;;;;4.75;3.33;;;;;;;1.67;65.72;98665.13;5072591;28;20029;-76
2023/03/28 11:29:31;;;;;;;5.70;3.10;;;;;;;1.42;65.77;98668.03;5058489;28;20039;-76
2023/03/28 11:32:09;;;;;;;6.43;3.63;;;;;;;1.04;67.81;98665.44;5074058;28;20105;-75
2023/03/28 11:34:42;;;;;;;6.55;3.47;;;;;;;0.85;67.70;98658.41;5074390;28;20016;-76
2023/03/28 11:37:16;;;;;;;3.95;2.50;;;;;;;0.87;69.24;98656.31;5054600;28;20052;-75
2023/03/28 11:39:48;;;;;;;5.50;2.75;;;;;;;0.91;68.42;98643.19;5054761;28;20020;-75
2023/03/28 11:42:19;;;;;;;5.32;3.10;;;;;;;1.03;68.97;98654.84;5062875;28;20042;-76
2023/03/28 11:45:06;;;;;;;9.57;5.07;;;;;;;1.17;69.09;98637.41;5090776;28;20024;-75
2023/03/28 11:47:46;;;;;;;9.65;4.90;;;;;;;1.40;69.05;98659.31;5094806;28;20024;-75
2023/03/28 11:50:21;;;;;;;;;;;;;;;1.45;68.78;98670.25;5095540;28;20028;-75
2023/03/28 11:52:53;;;;;;;8.27;4.45;;;;;;;1.40;68.23;98676.38;5094757;28;19934;-75